sensor_id;sensor_type;location;lat;lon;timestamp;P1;durP1;ratioP1;P2;durP2;ratioP2
64282;SDS011;50497;50.720;-2.084;2023-05-07T00:00:14;67.40;;;9.07;;
64282;SDS011;50497;50.720;-2.084;2023-05-07T00:02:43;82.15;;;9.18;;
64282;SDS011;50497;50.720;-2.084;2023-05-07T00:05:09;100.03;;;9.43;;
64282;SDS011;50497;50.720;-2.084;2023-05-07T00:07:35;47.45;;;7.45;;
64282;SDS011;50497;50.720;-2.084;2023-05-07T00:10:01;69.60;;;9.02;;
64282;SDS011;50497;50.720;-2.084;2023-05-07T00:14:55;66.38;;;7.75;;
64282;SDS011;50497;50.720;-2.084;2023-05-07T00:17:21;93.88;;;9.73;;
64282;SDS011;50497;50.720;-2.084;2023-05-07T00:19:46;92.13;;;9.25;;
64282;SDS011;50497;50.720;-2.084;2023-05-07T00:22:12;106.20;;;10.52;;
64282;SDS011;50497;50.720;-2.084;2023-05-07T00:24:38;71.65;;;9.80;;
64282;SDS011;50497;50.720;-2.084;2023-05-07T00:27:04;98.13;;;10.80;;
64282;SDS011;50497;50.720;-2.084;2023-05-07T00:29:30;77.90;;;8.43;;
64282;SDS011;50497;50.720;-2.084;2023-05-07T00:31:56;121.72;;;11.13;;
64282;SDS011;50497;50.720;-2.084;2023-05-07T00:34:21;107.38;;;9.25;;
64282;SDS011;50497;50.720;-2.084;2023-05-07T00:36:47;135.73;;;10.63;;
64282;SDS011;50497;50.720;-2.084;2023-05-07T00:39:13;139.02;;;11.60;;
64282;SDS011;50497;50.720;-2.084;2023-05-07T00:41:38;131.93;;;10.30;;
64282;SDS011;50497;50.720;-2.084;2023-05-07T00:44:04;96.85;;;9.15;;
64282;SDS011;50497;50.720;-2.084;2023-05-07T00:46:38;109.15;;;9.60;;
64282;SDS011;50497;50.720;-2.084;2023-05-07T00:49:03;104.53;;;9.27;;
64282;SDS011;50497;50.720;-2.084;2023-05-07T00:51:30;70.53;;;8.32;;
64282;SDS011;50497;50.720;-2.084;2023-05-07T00:53:59;101.97;;;9.55;;
64282;SDS011;50497;50.720;-2.084;2023-05-07T00:56:27;69.40;;;8.07;;
64282;SDS011;50497;50.720;-2.084;2023-05-07T00:58:53;52.00;;;8.02;;
64282;SDS011;50497;50.720;-2.084;2023-05-07T01:01:19;78.88;;;8.45;;
64282;SDS011;50497;50.720;-2.084;2023-05-07T01:03:44;85.25;;;8.73;;
64282;SDS011;50497;50.720;-2.084;2023-05-07T01:06:11;91.45;;;9.98;;
64282;SDS011;50497;50.720;-2.084;2023-05-07T01:08:41;89.35;;;9.80;;
64282;SDS011;50497;50.720;-2.084;2023-05-07T01:11:08;52.10;;;9.00;;
64282;SDS011;50497;50.720;-2.084;2023-05-07T01:13:38;51.30;;;9.50;;
64282;SDS011;50497;50.720;-2.084;2023-05-07T01:16:11;62.67;;;9.18;;
64282;SDS011;50497;50.720;-2.084;2023-05-07T01:18:46;52.58;;;8.27;;
64282;SDS011;50497;50.720;-2.084;2023-05-07T01:21:15;47.42;;;8.65;;
64282;SDS011;50497;50.720;-2.084;2023-05-07T01:23:46;43.28;;;8.20;;
64282;SDS011;50497;50.720;-2.084;2023-05-07T01:26:12;42.97;;;9.20;;
64282;SDS011;50497;50.720;-2.084;2023-05-07T01:28:38;60.85;;;10.82;;
64282;SDS011;50497;50.720;-2.084;2023-05-07T01:31:03;45.95;;;10.05;;
64282;SDS011;50497;50.720;-2.084;2023-05-07T01:33:32;50.15;;;9.63;;
64282;SDS011;50497;50.720;-2.084;2023-05-07T01:36:04;41.17;;;8.50;;
64282;SDS011;50497;50.720;-2.084;2023-05-07T01:38:31;41.63;;;9.80;;
64282;SDS011;50497;50.720;-2.084;2023-05-07T01:40:58;38.85;;;9.30;;
64282;SDS011;50497;50.720;-2.084;2023-05-07T01:43:27;39.28;;;10.82;;
64282;SDS011;50497;50.720;-2.084;2023-05-07T01:45:55;34.08;;;10.35;;
64282;SDS011;50497;50.720;-2.084;2023-05-07T01:48:22;41.15;;;10.45;;
64282;SDS011;50497;50.720;-2.084;2023-05-07T01:50:48;36.38;;;9.77;;
64282;SDS011;50497;50.720;-2.084;2023-05-07T01:53:17;33.28;;;8.93;;
64282;SDS011;50497;50.720;-2.084;2023-05-07T01:55:43;44.05;;;10.07;;
64282;SDS011;50497;50.720;-2.084;2023-05-07T01:58:09;27.52;;;8.05;;
64282;SDS011;50497;50.720;-2.084;2023-05-07T02:00:35;34.72;;;8.80;;
64282;SDS011;50497;50.720;-2.084;2023-05-07T02:03:04;36.03;;;8.60;;
64282;SDS011;50497;50.720;-2.084;2023-05-07T02:05:34;41.28;;;9.60;;
64282;SDS011;50497;50.720;-2.084;2023-05-07T02:07:59;36.53;;;8.43;;
64282;SDS011;50497;50.720;-2.084;2023-05-07T02:10:24;44.80;;;9.18;;
64282;SDS011;50497;50.720;-2.084;2023-05-07T02:12:50;32.72;;;7.43;;
64282;SDS011;50497;50.720;-2.084;2023-05-07T02:15:15;40.28;;;8.48;;
64282;SDS011;50497;50.720;-2.084;2023-05-07T02:18:05;32.95;;;8.23;;
64282;SDS011;50497;50.720;-2.084;2023-05-07T02:20:35;45.80;;;8.38;;
64282;SDS011;50497;50.720;-2.084;2023-05-07T02:23:01;31.83;;;6.57;;
64282;SDS011;50497;50.720;-2.084;2023-05-07T02:25:26;41.22;;;7.75;;
64282;SDS011;50497;50.720;-2.084;2023-05-07T02:27:52;45.97;;;7.82;;
64282;SDS011;50497;50.720;-2.084;2023-05-07T02:30:18;34.97;;;6.90;;
64282;SDS011;50497;50.720;-2.084;2023-05-07T02:32:46;60.95;;;7.90;;
64282;SDS011;50497;50.720;-2.084;2023-05-07T02:35:12;44.50;;;7.05;;
64282;SDS011;50497;50.720;-2.084;2023-05-07T02:37:41;31.75;;;7.13;;
64282;SDS011;50497;50.720;-2.084;2023-05-07T02:40:07;39.60;;;6.97;;
64282;SDS011;50497;50.720;-2.084;2023-05-07T02:42:37;47.10;;;7.68;;
64282;SDS011;50497;50.720;-2.084;2023-05-07T02:45:05;64.72;;;8.32;;
64282;SDS011;50497;50.720;-2.084;2023-05-07T02:47:31;50.15;;;8.05;;
64282;SDS011;50497;50.720;-2.084;2023-05-07T02:49:57;52.50;;;7.30;;
64282;SDS011;50497;50.720;-2.084;2023-05-07T02:52:22;57.15;;;6.93;;
64282;SDS011;50497;50.720;-2.084;2023-05-07T02:54:48;42.28;;;6.75;;
64282;SDS011;50497;50.720;-2.084;2023-05-07T02:57:14;49.97;;;7.28;;
64282;SDS011;50497;50.720;-2.084;2023-05-07T02:59:39;37.20;;;7.00;;
64282;SDS011;50497;50.720;-2.084;2023-05-07T03:02:05;39.67;;;7.00;;
64282;SDS011;50497;50.720;-2.084;2023-05-07T03:06:57;34.00;;;6.27;;
64282;SDS011;50497;50.720;-2.084;2023-05-07T03:09:22;31.13;;;7.30;;
64282;SDS011;50497;50.720;-2.084;2023-05-07T03:11:52;40.72;;;7.40;;
64282;SDS011;50497;50.720;-2.084;2023-05-07T03:14:17;37.60;;;7.00;;
64282;SDS011;50497;50.720;-2.084;2023-05-07T03:16:43;27.08;;;6.68;;
64282;SDS011;50497;50.720;-2.084;2023-05-07T03:19:09;40.38;;;7.05;;
64282;SDS011;50497;50.720;-2.084;2023-05-07T03:21:38;44.35;;;7.93;;
64282;SDS011;50497;50.720;-2.084;2023-05-07T03:24:04;41.50;;;7.57;;
64282;SDS011;50497;50.720;-2.084;2023-05-07T03:26:30;43.80;;;8.20;;
64282;SDS011;50497;50.720;-2.084;2023-05-07T03:28:55;45.75;;;8.35;;
64282;SDS011;50497;50.720;-2.084;2023-05-07T03:31:26;40.05;;;7.78;;
64282;SDS011;50497;50.720;-2.084;2023-05-07T03:33:52;48.03;;;8.75;;
64282;SDS011;50497;50.720;-2.084;2023-05-07T03:36:19;41.95;;;8.68;;
64282;SDS011;50497;50.720;-2.084;2023-05-07T03:38:45;33.03;;;7.88;;
64282;SDS011;50497;50.720;-2.084;2023-05-07T03:41:14;57.42;;;9.32;;
64282;SDS011;50497;50.720;-2.084;2023-05-07T03:43:40;29.75;;;7.70;;
64282;SDS011;50497;50.720;-2.084;2023-05-07T03:46:06;29.15;;;7.60;;
64282;SDS011;50497;50.720;-2.084;2023-05-07T03:48:35;30.25;;;8.15;;
64282;SDS011;50497;50.720;-2.084;2023-05-07T03:51:04;30.02;;;7.80;;
64282;SDS011;50497;50.720;-2.084;2023-05-07T03:53:29;28.90;;;8.30;;
64282;SDS011;50497;50.720;-2.084;2023-05-07T03:55:58;35.53;;;8.40;;
64282;SDS011;50497;50.720;-2.084;2023-05-07T03:58:24;30.50;;;8.27;;
64282;SDS011;50497;50.720;-2.084;2023-05-07T04:00:52;36.63;;;8.85;;
64282;SDS011;50497;50.720;-2.084;2023-05-07T04:03:18;29.13;;;8.80;;
64282;SDS011;50497;50.720;-2.084;2023-05-07T04:05:47;28.52;;;7.75;;
64282;SDS011;50497;50.720;-2.084;2023-05-07T04:08:12;29.70;;;8.75;;
64282;SDS011;50497;50.720;-2.084;2023-05-07T04:10:38;30.35;;;8.65;;
64282;SDS011;50497;50.720;-2.084;2023-05-07T04:13:04;32.60;;;9.15;;
64282;SDS011;50497;50.720;-2.084;2023-05-07T04:15:35;25.08;;;7.60;;
64282;SDS011;50497;50.720;-2.084;2023-05-07T04:18:01;27.23;;;7.85;;
64282;SDS011;50497;50.720;-2.084;2023-05-07T04:20:27;33.20;;;8.32;;
64282;SDS011;50497;50.720;-2.084;2023-05-07T04:22:52;32.85;;;8.18;;
64282;SDS011;50497;50.720;-2.084;2023-05-07T04:25:18;22.70;;;7.82;;
64282;SDS011;50497;50.720;-2.084;2023-05-07T04:27:44;25.90;;;8.13;;
64282;SDS011;50497;50.720;-2.084;2023-05-07T04:30:14;28.83;;;8.20;;
64282;SDS011;50497;50.720;-2.084;2023-05-07T04:32:43;22.60;;;7.43;;
64282;SDS011;50497;50.720;-2.084;2023-05-07T04:35:13;28.90;;;8.35;;
64282;SDS011;50497;50.720;-2.084;2023-05-07T04:37:43;30.38;;;8.50;;
64282;SDS011;50497;50.720;-2.084;2023-05-07T04:40:12;27.40;;;8.70;;
64282;SDS011;50497;50.720;-2.084;2023-05-07T04:42:37;28.35;;;8.30;;
64282;SDS011;50497;50.720;-2.084;2023-05-07T04:45:06;35.03;;;8.38;;
64282;SDS011;50497;50.720;-2.084;2023-05-07T04:47:42;23.75;;;8.77;;
64282;SDS011;50497;50.720;-2.084;2023-05-07T04:50:07;28.15;;;8.93;;
64282;SDS011;50497;50.720;-2.084;2023-05-07T04:52:33;26.98;;;8.98;;
64282;SDS011;50497;50.720;-2.084;2023-05-07T04:55:03;25.77;;;8.52;;
64282;SDS011;50497;50.720;-2.084;2023-05-07T04:57:32;24.38;;;8.57;;
64282;SDS011;50497;50.720;-2.084;2023-05-07T05:00:05;23.63;;;9.10;;
64282;SDS011;50497;50.720;-2.084;2023-05-07T05:02:36;21.75;;;7.43;;
64282;SDS011;50497;50.720;-2.084;2023-05-07T05:05:02;22.67;;;7.75;;
64282;SDS011;50497;50.720;-2.084;2023-05-07T05:07:28;22.40;;;7.72;;
64282;SDS011;50497;50.720;-2.084;2023-05-07T05:09:53;20.05;;;7.80;;
64282;SDS011;50497;50.720;-2.084;2023-05-07T05:12:22;22.83;;;7.28;;
64282;SDS011;50497;50.720;-2.084;2023-05-07T05:14:48;23.60;;;7.78;;
64282;SDS011;50497;50.720;-2.084;2023-05-07T05:17:14;19.20;;;6.88;;
64282;SDS011;50497;50.720;-2.084;2023-05-07T05:19:39;17.58;;;6.70;;
64282;SDS011;50497;50.720;-2.084;2023-05-07T05:22:05;21.45;;;7.70;;
64282;SDS011;50497;50.720;-2.084;2023-05-07T05:24:30;18.95;;;6.85;;
64282;SDS011;50497;50.720;-2.084;2023-05-07T05:27:00;21.05;;;8.07;;
64282;SDS011;50497;50.720;-2.084;2023-05-07T05:29:27;19.27;;;7.65;;
64282;SDS011;50497;50.720;-2.084;2023-05-07T05:31:58;18.90;;;7.50;;
64282;SDS011;50497;50.720;-2.084;2023-05-07T05:34:24;19.63;;;6.93;;
64282;SDS011;50497;50.720;-2.084;2023-05-07T05:36:50;20.35;;;7.07;;
64282;SDS011;50497;50.720;-2.084;2023-05-07T05:39:15;23.35;;;7.70;;
64282;SDS011;50497;50.720;-2.084;2023-05-07T05:41:47;17.40;;;7.13;;
64282;SDS011;50497;50.720;-2.084;2023-05-07T05:44:15;18.27;;;6.93;;
64282;SDS011;50497;50.720;-2.084;2023-05-07T05:46:44;20.77;;;7.53;;
64282;SDS011;50497;50.720;-2.084;2023-05-07T05:49:09;19.35;;;6.57;;
64282;SDS011;50497;50.720;-2.084;2023-05-07T05:51:35;20.42;;;7.00;;
64282;SDS011;50497;50.720;-2.084;2023-05-07T05:54:00;20.55;;;8.18;;
64282;SDS011;50497;50.720;-2.084;2023-05-07T05:56:26;21.25;;;7.68;;
64282;SDS011;50497;50.720;-2.084;2023-05-07T05:58:52;18.13;;;7.13;;
64282;SDS011;50497;50.720;-2.084;2023-05-07T06:01:19;18.25;;;6.75;;
64282;SDS011;50497;50.720;-2.084;2023-05-07T06:03:45;19.40;;;7.22;;
64282;SDS011;50497;50.720;-2.084;2023-05-07T06:06:10;23.40;;;7.47;;
64282;SDS011;50497;50.720;-2.084;2023-05-07T06:08:36;17.42;;;6.80;;
64282;SDS011;50497;50.720;-2.084;2023-05-07T06:11:02;20.48;;;6.88;;
64282;SDS011;50497;50.720;-2.084;2023-05-07T06:13:28;18.35;;;6.82;;
64282;SDS011;50497;50.720;-2.084;2023-05-07T06:15:53;18.00;;;7.40;;
64282;SDS011;50497;50.720;-2.084;2023-05-07T06:18:19;19.38;;;6.95;;
64282;SDS011;50497;50.720;-2.084;2023-05-07T06:20:44;17.77;;;7.13;;
64282;SDS011;50497;50.720;-2.084;2023-05-07T06:23:10;16.85;;;7.00;;
64282;SDS011;50497;50.720;-2.084;2023-05-07T06:25:35;21.73;;;7.20;;
64282;SDS011;50497;50.720;-2.084;2023-05-07T06:28:01;17.95;;;6.70;;
64282;SDS011;50497;50.720;-2.084;2023-05-07T06:30:26;19.25;;;6.85;;
64282;SDS011;50497;50.720;-2.084;2023-05-07T06:32:52;16.58;;;7.07;;
64282;SDS011;50497;50.720;-2.084;2023-05-07T06:35:17;21.65;;;7.20;;
64282;SDS011;50497;50.720;-2.084;2023-05-07T06:37:43;19.25;;;6.85;;
64282;SDS011;50497;50.720;-2.084;2023-05-07T06:40:09;20.90;;;7.20;;
64282;SDS011;50497;50.720;-2.084;2023-05-07T06:42:35;17.27;;;6.30;;
64282;SDS011;50497;50.720;-2.084;2023-05-07T06:45:02;18.85;;;6.68;;
64282;SDS011;50497;50.720;-2.084;2023-05-07T06:47:28;18.30;;;5.78;;
64282;SDS011;50497;50.720;-2.084;2023-05-07T06:49:53;17.40;;;5.93;;
64282;SDS011;50497;50.720;-2.084;2023-05-07T06:52:19;16.23;;;6.03;;
64282;SDS011;50497;50.720;-2.084;2023-05-07T06:54:44;16.40;;;6.28;;
64282;SDS011;50497;50.720;-2.084;2023-05-07T06:57:10;20.20;;;6.50;;
64282;SDS011;50497;50.720;-2.084;2023-05-07T06:59:35;17.20;;;6.28;;
64282;SDS011;50497;50.720;-2.084;2023-05-07T07:02:01;15.95;;;5.70;;
64282;SDS011;50497;50.720;-2.084;2023-05-07T07:04:27;15.52;;;5.47;;
64282;SDS011;50497;50.720;-2.084;2023-05-07T07:06:53;19.70;;;6.15;;
64282;SDS011;50497;50.720;-2.084;2023-05-07T07:09:19;16.63;;;5.90;;
64282;SDS011;50497;50.720;-2.084;2023-05-07T07:11:44;15.82;;;5.90;;
64282;SDS011;50497;50.720;-2.084;2023-05-07T07:14:10;17.85;;;5.88;;
64282;SDS011;50497;50.720;-2.084;2023-05-07T07:16:36;16.33;;;6.07;;
64282;SDS011;50497;50.720;-2.084;2023-05-07T07:19:01;17.73;;;6.35;;
64282;SDS011;50497;50.720;-2.084;2023-05-07T07:21:27;25.00;;;8.02;;
64282;SDS011;50497;50.720;-2.084;2023-05-07T07:23:52;18.50;;;6.55;;
64282;SDS011;50497;50.720;-2.084;2023-05-07T07:26:18;16.45;;;6.20;;
64282;SDS011;50497;50.720;-2.084;2023-05-07T07:28:44;20.40;;;7.22;;
64282;SDS011;50497;50.720;-2.084;2023-05-07T07:31:11;17.83;;;7.55;;
64282;SDS011;50497;50.720;-2.084;2023-05-07T07:33:37;16.73;;;7.07;;
64282;SDS011;50497;50.720;-2.084;2023-05-07T07:36:02;19.38;;;7.47;;
64282;SDS011;50497;50.720;-2.084;2023-05-07T07:38:28;20.60;;;9.05;;
64282;SDS011;50497;50.720;-2.084;2023-05-07T07:40:54;18.58;;;6.70;;
64282;SDS011;50497;50.720;-2.084;2023-05-07T07:43:20;19.67;;;8.10;;
64282;SDS011;50497;50.720;-2.084;2023-05-07T07:45:45;18.58;;;7.32;;
64282;SDS011;50497;50.720;-2.084;2023-05-07T07:48:11;16.55;;;6.88;;
64282;SDS011;50497;50.720;-2.084;2023-05-07T07:50:36;21.00;;;8.35;;
64282;SDS011;50497;50.720;-2.084;2023-05-07T07:53:02;19.02;;;7.55;;
64282;SDS011;50497;50.720;-2.084;2023-05-07T07:55:27;21.25;;;7.88;;
64282;SDS011;50497;50.720;-2.084;2023-05-07T07:57:53;21.55;;;7.80;;
64282;SDS011;50497;50.720;-2.084;2023-05-07T08:00:19;18.63;;;6.97;;
64282;SDS011;50497;50.720;-2.084;2023-05-07T08:02:44;19.33;;;7.43;;
64282;SDS011;50497;50.720;-2.084;2023-05-07T08:05:10;16.50;;;6.95;;
64282;SDS011;50497;50.720;-2.084;2023-05-07T08:07:35;19.38;;;7.50;;
64282;SDS011;50497;50.720;-2.084;2023-05-07T08:10:01;16.98;;;6.78;;
64282;SDS011;50497;50.720;-2.084;2023-05-07T08:12:27;18.23;;;6.75;;
64282;SDS011;50497;50.720;-2.084;2023-05-07T08:14:53;19.27;;;7.63;;
64282;SDS011;50497;50.720;-2.084;2023-05-07T08:17:19;16.48;;;6.72;;
64282;SDS011;50497;50.720;-2.084;2023-05-07T08:19:47;13.40;;;6.60;;
64282;SDS011;50497;50.720;-2.084;2023-05-07T08:22:13;15.63;;;6.72;;
64282;SDS011;50497;50.720;-2.084;2023-05-07T08:24:39;15.65;;;6.80;;
64282;SDS011;50497;50.720;-2.084;2023-05-07T08:27:10;20.08;;;7.85;;
64282;SDS011;50497;50.720;-2.084;2023-05-07T08:29:36;21.02;;;8.13;;
64282;SDS011;50497;50.720;-2.084;2023-05-07T08:32:02;17.77;;;8.38;;
64282;SDS011;50497;50.720;-2.084;2023-05-07T08:34:32;20.35;;;8.52;;
64282;SDS011;50497;50.720;-2.084;2023-05-07T08:37:00;20.33;;;8.77;;
64282;SDS011;50497;50.720;-2.084;2023-05-07T08:39:25;19.50;;;9.18;;
64282;SDS011;50497;50.720;-2.084;2023-05-07T08:41:51;20.48;;;9.02;;
64282;SDS011;50497;50.720;-2.084;2023-05-07T08:44:25;17.63;;;8.15;;
64282;SDS011;50497;50.720;-2.084;2023-05-07T08:46:56;19.17;;;8.38;;
64282;SDS011;50497;50.720;-2.084;2023-05-07T08:49:26;15.27;;;7.25;;
64282;SDS011;50497;50.720;-2.084;2023-05-07T08:52:00;15.63;;;6.70;;
64282;SDS011;50497;50.720;-2.084;2023-05-07T08:54:26;15.90;;;6.20;;
64282;SDS011;50497;50.720;-2.084;2023-05-07T08:56:54;12.15;;;5.63;;
64282;SDS011;50497;50.720;-2.084;2023-05-07T08:59:25;12.80;;;5.90;;
64282;SDS011;50497;50.720;-2.084;2023-05-07T09:01:51;13.50;;;5.95;;
64282;SDS011;50497;50.720;-2.084;2023-05-07T09:04:17;13.32;;;5.80;;
64282;SDS011;50497;50.720;-2.084;2023-05-07T09:06:46;11.73;;;5.18;;
64282;SDS011;50497;50.720;-2.084;2023-05-07T09:09:16;13.18;;;5.18;;
64282;SDS011;50497;50.720;-2.084;2023-05-07T09:11:46;14.90;;;5.63;;
64282;SDS011;50497;50.720;-2.084;2023-05-07T09:14:15;11.57;;;4.75;;
64282;SDS011;50497;50.720;-2.084;2023-05-07T09:16:47;13.32;;;5.13;;
64282;SDS011;50497;50.720;-2.084;2023-05-07T09:19:16;13.73;;;6.63;;
64282;SDS011;50497;50.720;-2.084;2023-05-07T09:21:57;13.65;;;5.32;;
64282;SDS011;50497;50.720;-2.084;2023-05-07T09:24:33;12.60;;;5.22;;
64282;SDS011;50497;50.720;-2.084;2023-05-07T09:27:03;11.63;;;4.40;;
64282;SDS011;50497;50.720;-2.084;2023-05-07T09:29:33;10.68;;;4.03;;
64282;SDS011;50497;50.720;-2.084;2023-05-07T09:32:03;11.40;;;4.60;;
64282;SDS011;50497;50.720;-2.084;2023-05-07T09:34:34;11.25;;;4.10;;
64282;SDS011;50497;50.720;-2.084;2023-05-07T09:37:05;11.02;;;4.07;;
64282;SDS011;50497;50.720;-2.084;2023-05-07T09:39:41;11.85;;;4.57;;
64282;SDS011;50497;50.720;-2.084;2023-05-07T09:42:11;10.10;;;4.00;;
64282;SDS011;50497;50.720;-2.084;2023-05-07T09:45:00;11.13;;;4.35;;
64282;SDS011;50497;50.720;-2.084;2023-05-07T09:47:35;9.85;;;3.95;;
64282;SDS011;50497;50.720;-2.084;2023-05-07T09:50:09;10.00;;;3.30;;
64282;SDS011;50497;50.720;-2.084;2023-05-07T09:52:36;7.63;;;2.88;;
64282;SDS011;50497;50.720;-2.084;2023-05-07T09:55:05;10.57;;;3.55;;
64282;SDS011;50497;50.720;-2.084;2023-05-07T09:57:36;7.63;;;3.60;;
64282;SDS011;50497;50.720;-2.084;2023-05-07T10:00:08;8.98;;;3.67;;
64282;SDS011;50497;50.720;-2.084;2023-05-07T10:02:35;8.38;;;3.25;;
64282;SDS011;50497;50.720;-2.084;2023-05-07T10:05:02;13.27;;;4.10;;
64282;SDS011;50497;50.720;-2.084;2023-05-07T10:07:33;7.60;;;3.10;;
64282;SDS011;50497;50.720;-2.084;2023-05-07T10:10:03;8.70;;;3.40;;
64282;SDS011;50497;50.720;-2.084;2023-05-07T10:12:33;9.20;;;3.10;;
64282;SDS011;50497;50.720;-2.084;2023-05-07T10:15:07;9.75;;;3.95;;
64282;SDS011;50497;50.720;-2.084;2023-05-07T10:17:35;7.00;;;3.00;;
64282;SDS011;50497;50.720;-2.084;2023-05-07T10:20:01;10.20;;;3.40;;
64282;SDS011;50497;50.720;-2.084;2023-05-07T10:22:28;8.40;;;2.70;;
64282;SDS011;50497;50.720;-2.084;2023-05-07T10:24:57;7.65;;;3.08;;
64282;SDS011;50497;50.720;-2.084;2023-05-07T10:27:27;6.97;;;2.58;;
64282;SDS011;50497;50.720;-2.084;2023-05-07T10:32:39;7.55;;;2.60;;
64282;SDS011;50497;50.720;-2.084;2023-05-07T10:35:13;7.78;;;2.92;;
64282;SDS011;50497;50.720;-2.084;2023-05-07T10:37:47;8.20;;;2.92;;
64282;SDS011;50497;50.720;-2.084;2023-05-07T10:40:14;7.00;;;2.70;;
64282;SDS011;50497;50.720;-2.084;2023-05-07T10:42:59;7.88;;;2.70;;
64282;SDS011;50497;50.720;-2.084;2023-05-07T10:45:31;7.38;;;2.80;;
64282;SDS011;50497;50.720;-2.084;2023-05-07T10:48:12;9.50;;;3.08;;
64282;SDS011;50497;50.720;-2.084;2023-05-07T10:50:49;7.03;;;2.78;;
64282;SDS011;50497;50.720;-2.084;2023-05-07T10:53:35;8.30;;;2.90;;
64282;SDS011;50497;50.720;-2.084;2023-05-07T10:58:49;8.02;;;2.95;;
64282;SDS011;50497;50.720;-2.084;2023-05-07T11:01:19;9.95;;;2.67;;
64282;SDS011;50497;50.720;-2.084;2023-05-07T11:04:22;9.25;;;3.10;;
64282;SDS011;50497;50.720;-2.084;2023-05-07T11:15:04;6.50;;;2.67;;
64282;SDS011;50497;50.720;-2.084;2023-05-07T11:17:51;8.25;;;2.90;;
64282;SDS011;50497;50.720;-2.084;2023-05-07T11:26:06;7.85;;;2.55;;
64282;SDS011;50497;50.720;-2.084;2023-05-07T11:28:36;7.97;;;2.72;;
64282;SDS011;50497;50.720;-2.084;2023-05-07T11:31:07;7.40;;;2.72;;
64282;SDS011;50497;50.720;-2.084;2023-05-07T11:33:33;7.63;;;2.60;;
64282;SDS011;50497;50.720;-2.084;2023-05-07T11:36:00;9.48;;;2.63;;
64282;SDS011;50497;50.720;-2.084;2023-05-07T11:38:28;7.43;;;2.80;;
64282;SDS011;50497;50.720;-2.084;2023-05-07T11:40:56;9.38;;;2.60;;
64282;SDS011;50497;50.720;-2.084;2023-05-07T11:43:24;6.57;;;2.58;;
64282;SDS011;50497;50.720;-2.084;2023-05-07T11:45:53;6.43;;;2.60;;
64282;SDS011;50497;50.720;-2.084;2023-05-07T11:48:20;9.77;;;2.78;;
64282;SDS011;50497;50.720;-2.084;2023-05-07T11:50:51;9.15;;;2.70;;
64282;SDS011;50497;50.720;-2.084;2023-05-07T11:53:20;5.75;;;2.25;;
64282;SDS011;50497;50.720;-2.084;2023-05-07T11:55:55;7.90;;;2.67;;
64282;SDS011;50497;50.720;-2.084;2023-05-07T11:58:22;6.43;;;2.28;;
64282;SDS011;50497;50.720;-2.084;2023-05-07T12:00:52;6.13;;;2.10;;
64282;SDS011;50497;50.720;-2.084;2023-05-07T12:03:20;8.35;;;2.70;;
64282;SDS011;50497;50.720;-2.084;2023-05-07T12:05:46;6.65;;;2.90;;
64282;SDS011;50497;50.720;-2.084;2023-05-07T12:08:17;8.68;;;2.70;;
64282;SDS011;50497;50.720;-2.084;2023-05-07T12:10:44;6.65;;;2.42;;
64282;SDS011;50497;50.720;-2.084;2023-05-07T12:13:15;7.47;;;2.58;;
64282;SDS011;50497;50.720;-2.084;2023-05-07T12:15:45;6.32;;;2.40;;
64282;SDS011;50497;50.720;-2.084;2023-05-07T12:20:38;6.65;;;2.17;;
64282;SDS011;50497;50.720;-2.084;2023-05-07T12:23:04;6.32;;;2.35;;
64282;SDS011;50497;50.720;-2.084;2023-05-07T12:25:40;7.25;;;2.70;;
64282;SDS011;50497;50.720;-2.084;2023-05-07T12:28:13;7.65;;;2.45;;
64282;SDS011;50497;50.720;-2.084;2023-05-07T12:30:43;6.60;;;2.42;;
64282;SDS011;50497;50.720;-2.084;2023-05-07T12:33:10;6.25;;;2.33;;
64282;SDS011;50497;50.720;-2.084;2023-05-07T12:38:14;6.80;;;2.50;;
64282;SDS011;50497;50.720;-2.084;2023-05-07T12:40:45;7.60;;;2.28;;
64282;SDS011;50497;50.720;-2.084;2023-05-07T12:43:19;5.55;;;2.20;;
64282;SDS011;50497;50.720;-2.084;2023-05-07T12:45:49;8.63;;;2.40;;
64282;SDS011;50497;50.720;-2.084;2023-05-07T12:48:16;7.85;;;2.60;;
64282;SDS011;50497;50.720;-2.084;2023-05-07T12:50:42;6.95;;;2.55;;
64282;SDS011;50497;50.720;-2.084;2023-05-07T12:55:46;6.05;;;2.60;;
64282;SDS011;50497;50.720;-2.084;2023-05-07T12:58:17;6.93;;;2.40;;
64282;SDS011;50497;50.720;-2.084;2023-05-07T13:00:43;5.78;;;2.00;;
64282;SDS011;50497;50.720;-2.084;2023-05-07T13:03:10;5.95;;;2.13;;
64282;SDS011;50497;50.720;-2.084;2023-05-07T13:05:40;5.95;;;2.13;;
64282;SDS011;50497;50.720;-2.084;2023-05-07T13:10:31;6.63;;;2.25;;
64282;SDS011;50497;50.720;-2.084;2023-05-07T13:12:59;8.95;;;2.55;;
64282;SDS011;50497;50.720;-2.084;2023-05-07T13:17:52;7.78;;;2.65;;
64282;SDS011;50497;50.720;-2.084;2023-05-07T13:20:18;7.47;;;2.50;;
64282;SDS011;50497;50.720;-2.084;2023-05-07T13:25:09;6.93;;;2.17;;
64282;SDS011;50497;50.720;-2.084;2023-05-07T13:27:35;5.85;;;2.13;;
64282;SDS011;50497;50.720;-2.084;2023-05-07T13:30:02;5.97;;;2.35;;
64282;SDS011;50497;50.720;-2.084;2023-05-07T13:32:31;6.60;;;2.20;;
64282;SDS011;50497;50.720;-2.084;2023-05-07T13:37:23;6.32;;;2.20;;
64282;SDS011;50497;50.720;-2.084;2023-05-07T13:42:13;4.63;;;2.10;;
64282;SDS011;50497;50.720;-2.084;2023-05-07T13:44:39;7.38;;;2.53;;
64282;SDS011;50497;50.720;-2.084;2023-05-07T13:47:05;6.22;;;2.40;;
64282;SDS011;50497;50.720;-2.084;2023-05-07T13:51:56;5.73;;;2.10;;
64282;SDS011;50497;50.720;-2.084;2023-05-07T13:54:21;6.68;;;2.20;;
64282;SDS011;50497;50.720;-2.084;2023-05-07T13:59:13;5.57;;;2.00;;
64282;SDS011;50497;50.720;-2.084;2023-05-07T14:01:39;7.20;;;2.80;;
64282;SDS011;50497;50.720;-2.084;2023-05-07T14:06:30;7.07;;;2.20;;
64282;SDS011;50497;50.720;-2.084;2023-05-07T14:08:56;7.22;;;2.17;;
64282;SDS011;50497;50.720;-2.084;2023-05-07T14:11:23;7.43;;;2.70;;
64282;SDS011;50497;50.720;-2.084;2023-05-07T14:16:14;8.85;;;2.67;;
64282;SDS011;50497;50.720;-2.084;2023-05-07T14:18:52;8.90;;;3.00;;
64282;SDS011;50497;50.720;-2.084;2023-05-07T14:21:17;8.75;;;2.72;;
64282;SDS011;50497;50.720;-2.084;2023-05-07T14:23:42;8.13;;;2.53;;
64282;SDS011;50497;50.720;-2.084;2023-05-07T14:28:33;8.27;;;2.58;;
64282;SDS011;50497;50.720;-2.084;2023-05-07T14:33:24;7.80;;;2.67;;
64282;SDS011;50497;50.720;-2.084;2023-05-07T14:38:15;9.95;;;2.70;;
64282;SDS011;50497;50.720;-2.084;2023-05-07T14:40:41;9.20;;;2.75;;
64282;SDS011;50497;50.720;-2.084;2023-05-07T14:43:06;7.28;;;2.55;;
64282;SDS011;50497;50.720;-2.084;2023-05-07T14:45:32;6.65;;;2.50;;
64282;SDS011;50497;50.720;-2.084;2023-05-07T14:50:23;8.18;;;2.60;;
64282;SDS011;50497;50.720;-2.084;2023-05-07T14:55:14;8.13;;;2.40;;
64282;SDS011;50497;50.720;-2.084;2023-05-07T14:57:39;6.55;;;2.30;;
64282;SDS011;50497;50.720;-2.084;2023-05-07T15:00:05;7.03;;;2.40;;
64282;SDS011;50497;50.720;-2.084;2023-05-07T15:02:32;10.82;;;2.83;;
64282;SDS011;50497;50.720;-2.084;2023-05-07T15:04:58;9.20;;;2.67;;
64282;SDS011;50497;50.720;-2.084;2023-05-07T15:07:24;9.65;;;2.78;;
64282;SDS011;50497;50.720;-2.084;2023-05-07T15:09:50;8.13;;;2.53;;
64282;SDS011;50497;50.720;-2.084;2023-05-07T15:14:41;8.75;;;2.60;;
64282;SDS011;50497;50.720;-2.084;2023-05-07T15:17:07;7.47;;;2.40;;
64282;SDS011;50497;50.720;-2.084;2023-05-07T15:19:32;6.75;;;2.60;;
64282;SDS011;50497;50.720;-2.084;2023-05-07T15:21:58;8.30;;;2.70;;
64282;SDS011;50497;50.720;-2.084;2023-05-07T15:24:27;9.98;;;2.58;;
64282;SDS011;50497;50.720;-2.084;2023-05-07T15:26:54;8.23;;;3.53;;
64282;SDS011;50497;50.720;-2.084;2023-05-07T15:31:45;8.38;;;2.80;;
64282;SDS011;50497;50.720;-2.084;2023-05-07T15:34:11;7.32;;;2.35;;
64282;SDS011;50497;50.720;-2.084;2023-05-07T15:39:02;8.10;;;2.72;;
64282;SDS011;50497;50.720;-2.084;2023-05-07T15:41:29;7.05;;;2.35;;